Hamilton, Canada
Current Conditions -  °F | °C
As of 11:00 PM on Tuesday 21 Oct 2014 (Local Time) from CYHM Reporting Station
Rain Showers Rain Showers  
Wind Chill: 36°   Ceiling: 1200
Heat Index: 43°   Visibility: 2mi
Dew Point: 41°   Wind: 14mph
Humidity: 93%   Direction: 20°NNE
Pressure: 30.15"   Gusts: 21mph
Location:  43.26°N, 79.89°W
Report Text: CYHM 220300Z 02012G18KT 2SM -SHRA BR SCT006 BKN012 OVC019 06/05 A3015 RMK SF3SC4SC1 SLP213
Loading
Personal Weather Stations






























Interactive Weather Map
Tropical Storm Tracking
New forecast layout! Learn more

10-Day Weather Forecast

Advertisements
Track Severe Weather on mobile